Time;durP1;ratioP1;P1;durP2;ratioP2;P2;SDS_P1;SDS_P2;PMS_P1;PMS_P2;Temp;Humidity;BMP_temperature;BMP_pressure;BME280_temperature;BME280_humidity;BME280_pressure;Samples;Min_cycle;Max_cycle;Signal;HPM_P1;HPM_P2
2022/04/16 00:02:00;;;;;;;3.30;3.00;;;12.10;96.30;;;;;;5000981;28;20476;-67
2022/04/16 00:04:27;;;;;;;2.63;2.17;;;12.10;96.40;;;;;;5028723;28;20482;-68
2022/04/16 00:06:54;;;;;;;3.20;2.47;;;12.10;96.40;;;;;;5027857;28;20447;-68
2022/04/16 00:09:20;;;;;;;2.40;2.20;;;12.10;96.50;;;;;;5019273;28;20842;-69
2022/04/16 00:11:45;;;;;;;2.47;2.27;;;12.10;96.50;;;;;;4987976;28;20448;-71
2022/04/16 00:14:12;;;;;;;3.00;2.70;;;12.10;96.40;;;;;;5021883;28;20603;-69
2022/04/16 00:16:38;;;;;;;3.37;2.73;;;12.10;96.50;;;;;;5009286;28;20221;-71
2022/04/16 00:19:04;;;;;;;2.60;2.33;;;12.00;96.60;;;;;;5008684;28;20448;-72
2022/04/16 00:21:30;;;;;;;5.10;2.90;;;12.00;96.60;;;;;;5023030;28;21007;-67
2022/04/16 00:23:57;;;;;;;2.70;2.50;;;12.00;96.60;;;;;;5009579;28;20648;-70
2022/04/16 00:26:23;;;;;;;2.50;2.10;;;12.00;96.50;;;;;;5009958;28;20460;-68
2022/04/16 00:28:50;;;;;;;2.17;1.60;;;12.00;96.40;;;;;;5016825;28;20862;-67
2022/04/16 00:31:16;;;;;;;2.03;1.80;;;12.00;96.40;;;;;;5024387;28;20510;-67
2022/04/16 00:33:41;;;;;;;3.10;2.63;;;12.00;96.50;;;;;;4991537;28;20433;-68
2022/04/16 00:36:07;;;;;;;3.73;2.40;;;12.00;96.70;;;;;;5012866;28;20217;-68
2022/04/16 00:38:33;;;;;;;4.03;2.40;;;12.00;96.60;;;;;;5006269;28;20213;-68
2022/04/16 00:41:02;;;;;;;5.70;2.73;;;12.00;96.70;;;;;;4998623;28;20550;-69
2022/04/16 00:43:29;;;;;;;2.80;2.60;;;12.00;96.70;;;;;;5010166;28;20245;-74
2022/04/16 00:45:55;;;;;;;2.93;2.63;;;11.90;96.90;;;;;;5008463;28;20606;-68
2022/04/16 00:48:22;;;;;;;2.90;2.50;;;11.90;97.00;;;;;;5013503;28;20990;-70
2022/04/16 00:50:52;;;;;;;3.57;2.50;;;11.90;97.00;;;;;;5013471;28;20488;-71
2022/04/16 00:53:18;;;;;;;4.43;2.90;;;11.80;97.00;;;;;;5012584;28;20535;-69
2022/04/16 00:55:44;;;;;;;3.07;2.80;;;11.80;97.10;;;;;;5008474;28;20436;-69
2022/04/16 00:58:10;;;;;;;2.93;2.73;;;11.80;97.00;;;;;;5011569;28;20497;-67
2022/04/16 01:00:36;;;;;;;3.20;2.90;;;11.80;97.20;;;;;;5007480;28;20216;-69
2022/04/16 01:03:02;;;;;;;4.33;3.10;;;11.70;97.10;;;;;;5012054;28;20646;-67
2022/04/16 01:05:28;;;;;;;3.87;2.90;;;11.70;97.10;;;;;;5024241;28;20513;-69
2022/04/16 01:07:57;;;;;;;3.63;3.00;;;11.70;97.20;;;;;;5010688;28;20527;-67
2022/04/16 01:10:32;;;;;;;3.17;2.87;;;11.70;97.20;;;;;;5002501;28;20309;-68
2022/04/16 01:13:07;;;;;;;4.77;3.10;;;11.70;97.00;;;;;;4994658;28;20526;-68
2022/04/16 01:15:33;;;;;;;3.70;3.40;;;11.80;97.00;;;;;;5012098;28;20456;-68
2022/04/16 01:18:02;;;;;;;3.70;2.80;;;11.80;96.90;;;;;;5011979;28;20486;-69
2022/04/16 01:20:28;;;;;;;4.13;2.90;;;11.80;97.00;;;;;;5003070;28;20217;-67
2022/04/16 01:22:56;;;;;;;2.80;2.50;;;11.80;97.00;;;;;;5011699;28;20849;-69
2022/04/16 01:25:26;;;;;;;2.50;2.30;;;11.80;96.90;;;;;;4991399;28;20453;-68
2022/04/16 01:27:53;;;;;;;3.27;2.90;;;11.80;97.00;;;;;;4993840;28;20453;-70
2022/04/16 01:30:20;;;;;;;3.20;2.90;;;11.80;97.00;;;;;;5011093;28;20453;-69
2022/04/16 01:32:48;;;;;;;2.90;2.60;;;11.80;97.00;;;;;;5009090;28;20487;-68
2022/04/16 01:35:16;;;;;;;3.23;2.93;;;11.80;97.00;;;;;;5008668;28;20464;-68
2022/04/16 01:37:41;;;;;;;4.30;3.60;;;11.80;97.00;;;;;;5010931;28;20452;-69
2022/04/16 01:40:09;;;;;;;3.57;3.27;;;11.80;97.00;;;;;;5013937;28;20821;-70
2022/04/16 01:42:36;;;;;;;2.97;2.77;;;11.80;96.80;;;;;;5014898;28;20314;-70
2022/04/16 01:45:03;;;;;;;5.07;3.47;;;11.70;96.70;;;;;;5013643;28;20527;-68
2022/04/16 01:47:29;;;;;;;4.33;3.30;;;11.70;96.80;;;;;;5009099;28;20461;-71
2022/04/16 01:49:55;;;;;;;4.23;3.40;;;11.70;96.90;;;;;;5015541;28;20558;-70
2022/04/16 01:52:23;;;;;;;4.17;3.13;;;11.70;96.90;;;;;;5005784;28;20213;-69
2022/04/16 01:54:52;;;;;;;2.93;2.73;;;11.70;96.90;;;;;;5006460;28;20857;-68
2022/04/16 01:57:19;;;;;;;4.20;3.80;;;11.70;97.00;;;;;;5010609;28;20460;-68
2022/04/16 01:59:48;;;;;;;4.30;3.23;;;11.70;97.00;;;;;;5019336;28;20479;-68
2022/04/16 02:02:17;;;;;;;3.33;3.03;;;11.70;97.00;;;;;;5018179;28;20518;-69
2022/04/16 02:04:43;;;;;;;4.63;3.50;;;11.70;96.90;;;;;;5014946;28;20907;-67
2022/04/16 02:07:13;;;;;;;3.80;3.40;;;11.70;96.90;;;;;;5020953;28;20491;-68
2022/04/16 02:09:39;;;;;;;3.10;2.80;;;11.60;96.90;;;;;;5006199;28;20463;-68
2022/04/16 02:12:06;;;;;;;3.63;3.33;;;11.60;97.00;;;;;;5014944;28;20448;-68
2022/04/16 02:14:32;;;;;;;6.37;3.43;;;11.60;97.00;;;;;;4999272;28;20456;-68
2022/04/16 02:16:59;;;;;;;3.80;3.33;;;11.70;97.00;;;;;;5023583;28;20467;-68
2022/04/16 02:19:25;;;;;;;3.20;2.90;;;11.60;97.00;;;;;;5013305;28;20209;-68
2022/04/16 02:21:51;;;;;;;4.70;3.67;;;11.60;97.10;;;;;;5014762;28;20471;-71
2022/04/16 02:24:17;;;;;;;3.90;3.50;;;11.60;97.00;;;;;;5016142;28;20460;-68
2022/04/16 02:26:44;;;;;;;4.27;3.40;;;11.60;97.20;;;;;;5013353;28;20260;-68
2022/04/16 02:29:11;;;;;;;3.40;3.10;;;11.60;97.30;;;;;;5008168;28;20229;-68
2022/04/16 02:31:37;;;;;;;3.37;2.77;;;11.60;97.20;;;;;;5006351;28;20452;-70
2022/04/16 02:34:08;;;;;;;3.07;2.80;;;11.60;97.40;;;;;;5010058;28;20490;-70
2022/04/16 02:36:34;;;;;;;4.03;3.07;;;11.60;97.30;;;;;;5010669;28;20465;-69
2022/04/16 02:39:00;;;;;;;3.53;3.23;;;11.60;97.40;;;;;;5011028;28;20455;-68
2022/04/16 02:41:27;;;;;;;4.60;3.40;;;11.60;97.40;;;;;;5016596;28;20973;-68
2022/04/16 02:43:58;;;;;;;3.50;3.07;;;11.60;97.40;;;;;;5023409;28;20978;-70
2022/04/16 02:49:10;;;;;;;4.17;3.60;;;11.60;97.50;;;;;;5010851;28;20747;-69
2022/04/16 02:51:36;;;;;;;4.40;3.60;;;11.50;97.60;;;;;;4998556;28;20449;-69
2022/04/16 02:54:02;;;;;;;9.97;3.57;;;11.50;97.90;;;;;;5022230;28;20463;-68
2022/04/16 02:56:27;;;;;;;3.13;2.70;;;11.50;97.60;;;;;;5011664;28;20299;-68
2022/04/16 02:58:53;;;;;;;4.40;3.23;;;11.50;97.60;;;;;;4993270;28;20572;-70
2022/04/16 03:01:19;;;;;;;3.93;3.00;;;11.50;97.60;;;;;;5008340;28;20224;-68
2022/04/16 03:03:45;;;;;;;3.27;2.97;;;11.50;97.60;;;;;;4990425;28;20293;-69
2022/04/16 03:06:12;;;;;;;4.00;3.60;;;11.50;97.60;;;;;;5011586;28;20236;-70
2022/04/16 03:08:38;;;;;;;3.63;3.27;;;11.50;97.60;;;;;;5019069;28;20524;-69
2022/04/16 03:11:04;;;;;;;3.80;3.50;;;11.50;97.50;;;;;;5018093;28;20216;-69
2022/04/16 03:13:34;;;;;;;3.73;3.27;;;11.50;97.60;;;;;;5016056;28;20307;-70
2022/04/16 03:18:45;;;;;;;4.13;3.30;;;11.50;98.10;;;;;;5007552;28;20527;-69
2022/04/16 03:21:12;;;;;;;4.80;3.40;;;11.50;97.80;;;;;;5015713;28;20447;-69
2022/04/16 03:23:38;;;;;;;4.20;3.63;;;11.50;97.80;;;;;;5023701;28;20468;-67
2022/04/16 03:26:03;;;;;;;7.90;3.10;;;11.50;97.70;;;;;;5012873;28;20441;-68
2022/04/16 03:28:31;;;;;;;4.60;3.90;;;11.40;97.80;;;;;;5015855;28;20537;-69
2022/04/16 03:30:58;;;;;;;4.83;3.50;;;11.50;97.90;;;;;;5014539;28;20689;-69
2022/04/16 03:33:24;;;;;;;4.33;3.43;;;11.50;97.90;;;;;;5010453;28;20468;-69
2022/04/16 03:35:51;;;;;;;7.70;4.00;;;11.50;97.80;;;;;;5001240;28;20550;-69
2022/04/16 03:38:18;;;;;;;4.77;4.17;;;11.50;97.90;;;;;;5012554;28;20460;-68
2022/04/16 03:40:44;;;;;;;3.40;3.10;;;11.40;97.90;;;;;;5015215;28;20469;-70
2022/04/16 03:43:10;;;;;;;4.03;3.57;;;11.40;97.80;;;;;;5009725;28;20464;-69
2022/04/16 03:45:37;;;;;;;4.03;3.60;;;11.40;97.90;;;;;;5013389;28;20471;-70
2022/04/16 03:48:05;;;;;;;4.40;3.67;;;11.40;97.90;;;;;;5015899;28;20715;-69
2022/04/16 03:50:32;;;;;;;4.70;3.70;;;11.40;98.00;;;;;;5016754;28;21050;-68
2022/04/16 03:52:58;;;;;;;4.70;3.40;;;11.40;97.90;;;;;;5023458;28;20482;-68
2022/04/16 04:00:57;;;;;;;4.80;3.80;;;11.40;98.00;;;;;;5018595;28;20454;-68
2022/04/16 04:03:24;;;;;;;4.70;4.20;;;11.30;98.10;;;;;;5011173;28;20491;-69
2022/04/16 04:05:53;;;;;;;6.13;3.70;;;11.30;98.00;;;;;;5013937;28;20463;-71
2022/04/16 04:08:20;;;;;;;5.63;3.87;;;11.30;98.20;;;;;;5010199;28;20485;-69
2022/04/16 04:10:46;;;;;;;7.30;4.23;;;11.30;98.10;;;;;;4990003;28;20457;-68
2022/04/16 04:13:13;;;;;;;4.73;3.63;;;11.30;98.30;;;;;;4996014;28;20448;-66
2022/04/16 04:15:39;;;;;;;4.67;3.50;;;11.30;98.20;;;;;;5006599;28;20451;-68
2022/04/16 04:18:05;;;;;;;6.20;4.37;;;11.30;98.30;;;;;;5022345;28;20555;-71
2022/04/16 04:20:32;;;;;;;7.07;4.30;;;11.30;98.30;;;;;;4992375;28;20547;-70
2022/04/16 04:22:58;;;;;;;4.10;3.70;;;11.30;98.40;;;;;;5008149;28;20476;-69
2022/04/16 04:25:23;;;;;;;4.20;3.57;;;11.30;98.40;;;;;;5012337;28;20447;-71
2022/04/16 04:27:50;;;;;;;4.17;3.77;;;11.30;98.50;;;;;;4989348;28;20591;-71
2022/04/16 04:30:16;;;;;;;4.97;4.47;;;11.30;98.40;;;;;;5011156;28;20295;-69
2022/04/16 04:32:42;;;;;;;4.67;3.70;;;11.30;98.50;;;;;;5013379;28;20476;-70
2022/04/16 04:35:08;;;;;;;5.97;3.77;;;11.30;98.60;;;;;;5009266;28;20464;-70
2022/04/16 04:37:34;;;;;;;4.87;4.00;;;11.30;98.70;;;;;;5027646;28;20256;-70
2022/04/16 04:40:00;;;;;;;4.93;3.70;;;11.30;98.70;;;;;;5013196;28;20534;-70
2022/04/16 04:42:27;;;;;;;4.10;3.70;;;11.30;98.70;;;;;;5012046;28;20233;-69
2022/04/16 04:44:53;;;;;;;4.03;3.50;;;11.30;98.70;;;;;;5011837;28;20221;-70
2022/04/16 04:47:19;;;;;;;4.73;3.60;;;11.30;98.80;;;;;;5011824;28;20460;-70
2022/04/16 04:49:45;;;;;;;6.10;4.23;;;11.30;98.80;;;;;;4994177;28;20227;-69
2022/04/16 04:52:26;;;;;;;5.17;4.43;;;11.30;98.80;;;;;;5009203;28;20541;-69
2022/04/16 04:54:55;;;;;;;8.40;4.93;;;11.30;98.80;;;;;;5011165;28;20436;-69
2022/04/16 04:57:21;;;;;;;5.50;4.17;;;11.30;99.00;;;;;;5012407;28;21018;-69
2022/04/16 04:59:47;;;;;;;5.40;4.00;;;11.30;98.80;;;;;;5016120;28;20447;-69
2022/04/16 05:02:13;;;;;;;6.90;4.80;;;11.30;99.00;;;;;;5027202;28;20477;-70
2022/04/16 05:04:38;;;;;;;7.97;4.50;;;11.30;99.00;;;;;;5023581;28;20244;-68
2022/04/16 05:07:07;;;;;;;5.80;4.10;;;11.30;99.10;;;;;;5018421;28;20278;-69
2022/04/16 05:09:34;;;;;;;6.17;4.13;;;11.30;99.00;;;;;;5016914;28;20308;-71
2022/04/16 05:12:00;;;;;;;6.23;4.53;;;11.30;99.30;;;;;;5024139;28;20506;-69
2022/04/16 05:14:26;;;;;;;6.40;4.97;;;11.30;98.90;;;;;;5014939;28;20456;-69
2022/04/16 05:16:51;;;;;;;5.60;4.33;;;11.30;99.10;;;;;;4997928;28;20450;-70
2022/04/16 05:19:17;;;;;;;7.47;5.00;;;11.30;99.00;;;;;;5022437;28;20235;-69
2022/04/16 05:21:43;;;;;;;7.47;4.87;;;11.30;99.20;;;;;;5012151;28;20322;-69
2022/04/16 05:24:09;;;;;;;5.20;4.27;;;11.20;99.40;;;;;;5016069;28;20588;-68
2022/04/16 05:26:35;;;;;;;5.53;4.30;;;11.30;99.30;;;;;;5009215;28;20316;-67
2022/04/16 05:29:01;;;;;;;6.20;4.07;;;11.20;99.20;;;;;;5010942;28;20570;-71
2022/04/16 05:31:29;;;;;;;5.33;3.97;;;11.20;99.40;;;;;;5014144;28;20227;-69
2022/04/16 05:36:41;;;;;;;7.47;4.73;;;11.20;99.60;;;;;;4999655;28;20448;-70
2022/04/16 05:39:07;;;;;;;6.57;5.10;;;11.20;99.90;;;;;;5016907;28;20523;-70
2022/04/16 05:41:35;;;;;;;7.57;4.50;;;11.30;99.90;;;;;;5019961;28;20581;-69
2022/04/16 05:44:02;;;;;;;8.53;4.93;;;11.20;99.90;;;;;;5009741;28;20300;-69
2022/04/16 05:46:29;;;;;;;6.43;4.23;;;11.20;99.90;;;;;;5009764;28;20464;-69
2022/04/16 05:48:54;;;;;;;12.17;5.70;;;11.20;99.90;;;;;;5012412;28;20441;-69
2022/04/16 05:51:21;;;;;;;5.03;4.10;;;11.20;99.90;;;;;;5011309;28;20518;-68
2022/04/16 05:53:48;;;;;;;5.70;5.03;;;11.20;99.90;;;;;;5014769;28;20221;-71
2022/04/16 05:56:15;;;;;;;8.87;5.00;;;11.10;99.90;;;;;;5015907;28;20456;-68
2022/04/16 05:58:42;;;;;;;7.00;5.17;;;11.10;99.90;;;;;;5025796;28;20459;-68
2022/04/16 06:01:08;;;;;;;7.63;5.30;;;11.10;99.90;;;;;;5016840;28;20473;-70
2022/04/16 06:03:44;;;;;;;6.03;4.83;;;11.10;99.90;;;;;;5017447;28;20607;-68
2022/04/16 06:06:10;;;;;;;6.70;4.50;;;11.20;99.90;;;;;;5022742;28;20443;-69
2022/04/16 06:08:37;;;;;;;5.53;4.40;;;11.10;99.90;;;;;;5027468;28;20482;-69
2022/04/16 06:11:06;;;;;;;6.60;4.87;;;11.10;99.90;;;;;;5026495;28;20220;-68
2022/04/16 06:13:32;;;;;;;7.20;4.80;;;11.10;99.90;;;;;;5010246;28;20491;-69
2022/04/16 06:15:59;;;;;;;8.93;5.13;;;11.10;99.90;;;;;;4993860;28;20523;-70
2022/04/16 06:18:25;;;;;;;7.80;5.30;;;11.10;99.90;;;;;;5011197;28;20222;-69
2022/04/16 06:20:51;;;;;;;6.70;4.50;;;11.10;99.90;;;;;;5010185;28;20452;-69
2022/04/16 06:23:20;;;;;;;5.80;4.50;;;11.10;99.90;;;;;;5021905;28;20475;-69
2022/04/16 06:25:46;;;;;;;5.27;4.10;;;11.10;99.90;;;;;;5029480;28;20217;-71
2022/04/16 06:28:12;;;;;;;7.77;4.70;;;11.10;99.90;;;;;;5018087;28;20468;-70
2022/04/16 06:30:38;;;;;;;5.97;4.47;;;11.10;99.90;;;;;;5014680;28;20213;-70
2022/04/16 06:33:04;;;;;;;6.23;4.60;;;11.10;99.90;;;;;;4996858;28;20456;-68
2022/04/16 06:35:30;;;;;;;4.50;3.47;;;11.10;99.90;;;;;;5027231;28;20239;-69
2022/04/16 06:37:56;;;;;;;6.00;3.90;;;11.10;99.90;;;;;;5013029;28;20217;-68
2022/04/16 06:40:22;;;;;;;4.00;3.40;;;11.10;99.90;;;;;;5010138;28;20225;-71
2022/04/16 06:42:48;;;;;;;7.33;4.50;;;11.10;99.90;;;;;;5017453;28;20555;-70
2022/04/16 06:45:14;;;;;;;4.67;3.37;;;11.10;99.90;;;;;;5025366;28;20228;-70
2022/04/16 06:47:40;;;;;;;6.07;4.00;;;11.10;99.90;;;;;;5024280;28;20462;-69
2022/04/16 06:50:08;;;;;;;5.23;4.10;;;11.10;99.90;;;;;;5009789;28;20594;-69
2022/04/16 06:52:33;;;;;;;4.53;3.90;;;11.10;99.90;;;;;;5010991;28;20551;-69
2022/04/16 06:54:59;;;;;;;5.50;3.80;;;11.10;99.90;;;;;;4997853;28;20504;-72
2022/04/16 06:57:26;;;;;;;6.07;4.13;;;11.10;99.90;;;;;;5018725;28;20232;-74
2022/04/16 06:59:52;;;;;;;6.53;4.70;;;11.10;99.90;;;;;;5020813;28;20451;-72
2022/04/16 07:02:18;;;;;;;5.27;3.90;;;11.10;99.90;;;;;;5013119;28;20464;-74
2022/04/16 07:04:43;;;;;;;9.60;4.87;;;11.10;99.90;;;;;;5008900;28;20468;-73
2022/04/16 07:07:09;;;;;;;6.73;4.63;;;11.10;99.90;;;;;;5022932;28;20225;-68
2022/04/16 07:09:39;;;;;;;4.77;4.23;;;11.10;99.90;;;;;;5013049;28;20213;-68
2022/04/16 07:12:07;;;;;;;5.10;3.60;;;11.10;99.90;;;;;;5013788;28;20221;-69
2022/04/16 07:14:34;;;;;;;6.93;4.50;;;11.10;99.90;;;;;;5009709;28;20456;-69
2022/04/16 07:17:01;;;;;;;6.07;4.40;;;11.20;99.90;;;;;;5012003;28;20467;-69
2022/04/16 07:19:28;;;;;;;4.40;3.60;;;11.20;99.90;;;;;;5008694;28;20463;-69
2022/04/16 07:21:55;;;;;;;6.00;4.10;;;11.20;99.90;;;;;;4995162;28;20544;-70
2022/04/16 07:24:22;;;;;;;7.67;4.23;;;11.20;99.90;;;;;;5006117;28;20456;-70
2022/04/16 07:26:48;;;;;;;5.80;4.60;;;11.20;99.90;;;;;;5005604;28;21102;-69
2022/04/16 07:29:14;;;;;;;8.90;5.30;;;11.30;99.90;;;;;;5008896;28;20467;-69
2022/04/16 07:31:40;;;;;;;6.27;4.50;;;11.30;99.90;;;;;;5017500;28;20227;-69
2022/04/16 07:34:06;;;;;;;6.60;4.67;;;11.30;99.90;;;;;;5026894;28;20451;-66
2022/04/16 07:36:32;;;;;;;7.80;4.60;;;11.30;99.90;;;;;;5013840;28;20221;-69
2022/04/16 07:38:57;;;;;;;7.03;4.90;;;11.40;99.90;;;;;;4993980;28;20229;-67
2022/04/16 07:41:23;;;;;;;5.27;4.13;;;11.40;99.90;;;;;;5010310;28;20217;-70
2022/04/16 07:43:49;;;;;;;5.80;4.10;;;11.40;99.90;;;;;;5012861;28;20278;-70
2022/04/16 07:46:18;;;;;;;6.47;4.53;;;11.50;99.90;;;;;;5008361;28;20225;-70
2022/04/16 07:48:44;;;;;;;5.03;4.27;;;11.60;99.90;;;;;;5016414;28;20316;-69
2022/04/16 07:51:10;;;;;;;3.60;3.30;;;11.60;99.90;;;;;;4991272;28;20552;-69
2022/04/16 07:53:36;;;;;;;4.57;3.37;;;11.70;99.90;;;;;;5006669;28;20259;-72
2022/04/16 07:56:02;;;;;;;5.70;3.33;;;11.70;99.90;;;;;;5019787;28;20212;-71
2022/04/16 07:58:28;;;;;;;4.70;4.20;;;11.70;99.90;;;;;;5009100;28;20284;-72
2022/04/16 08:00:53;;;;;;;5.10;4.20;;;11.70;99.90;;;;;;5009393;28;20460;-72
2022/04/16 08:03:19;;;;;;;4.40;3.60;;;11.80;99.90;;;;;;4991660;28;20465;-68
2022/04/16 08:05:45;;;;;;;5.23;3.77;;;11.80;99.90;;;;;;4998059;28;20224;-69
2022/04/16 08:08:11;;;;;;;3.70;2.70;;;11.80;99.90;;;;;;5024106;28;20225;-70
2022/04/16 08:10:37;;;;;;;4.33;3.17;;;11.80;99.90;;;;;;5020722;28;20286;-69
2022/04/16 08:13:05;;;;;;;3.67;2.80;;;11.90;99.90;;;;;;5002041;28;20269;-69
2022/04/16 08:15:31;;;;;;;3.40;3.00;;;11.90;99.90;;;;;;5015507;28;20832;-71
2022/04/16 08:17:57;;;;;;;3.20;2.60;;;12.00;99.90;;;;;;5024327;28;20455;-67
2022/04/16 08:20:23;;;;;;;4.17;2.37;;;12.10;99.90;;;;;;5018396;28;20448;-70
2022/04/16 08:22:49;;;;;;;2.97;2.63;;;12.10;99.80;;;;;;5017530;28;20233;-70
2022/04/16 08:27:51;;;;;;;2.60;2.40;;;12.10;99.30;;;;;;5012284;28;20232;-69
2022/04/16 08:30:21;;;;;;;3.13;2.83;;;12.10;99.00;;;;;;5016700;28;20451;-68
2022/04/16 08:32:47;;;;;;;2.37;2.17;;;12.20;98.90;;;;;;5026111;28;20473;-71
2022/04/16 08:35:15;;;;;;;6.73;2.57;;;12.10;98.80;;;;;;5014352;28;20534;-71
2022/04/16 08:37:42;;;;;;;2.70;2.40;;;12.20;98.80;;;;;;5019898;28;20216;-73
2022/04/16 08:40:09;;;;;;;2.60;2.37;;;12.20;98.80;;;;;;5019861;28;20471;-71
2022/04/16 08:42:37;;;;;;;2.83;2.40;;;12.20;98.80;;;;;;4999107;28;20555;-71
2022/04/16 08:45:06;;;;;;;2.07;1.87;;;12.30;99.00;;;;;;5023847;28;20457;-68
2022/04/16 08:47:32;;;;;;;1.67;1.57;;;12.30;98.10;;;;;;5021545;28;20861;-72
2022/04/16 08:49:59;;;;;;;1.50;1.03;;;12.20;97.50;;;;;;5000109;28;21352;-70
2022/04/16 08:52:29;;;;;;;1.60;1.50;;;12.20;96.80;;;;;;4999440;28;20225;-72
2022/04/16 08:54:56;;;;;;;1.73;1.60;;;12.10;96.80;;;;;;5010598;28;20547;-69
2022/04/16 08:57:22;;;;;;;1.80;1.13;;;12.00;96.70;;;;;;5014557;28;20475;-70
2022/04/16 08:59:50;;;;;;;1.17;1.07;;;12.00;96.50;;;;;;5013697;28;20558;-71
2022/04/16 09:02:17;;;;;;;1.83;1.27;;;12.10;96.70;;;;;;5016193;28;20232;-70
2022/04/16 09:04:43;;;;;;;1.40;1.30;;;12.10;96.60;;;;;;5016337;28;20472;-68
2022/04/16 09:07:09;;;;;;;1.47;1.10;;;12.10;96.30;;;;;;5013302;28;20463;-70
2022/04/16 09:09:35;;;;;;;1.20;1.10;;;12.10;96.50;;;;;;4998281;28;20236;-70
2022/04/16 09:12:01;;;;;;;1.33;0.90;;;12.20;96.40;;;;;;5011895;28;20448;-69
2022/04/16 09:14:36;;;;;;;0.93;0.93;;;12.10;96.10;;;;;;5017559;28;20538;-70
2022/04/16 09:17:08;;;;;;;1.50;1.40;;;12.20;96.00;;;;;;5010098;28;20228;-70
2022/04/16 09:19:33;;;;;;;1.37;1.13;;;12.20;96.40;;;;;;5006288;28;20460;-70
2022/04/16 09:21:59;;;;;;;1.50;1.40;;;12.20;96.20;;;;;;4996505;28;20464;-69
2022/04/16 09:24:25;;;;;;;2.80;1.40;;;12.30;96.20;;;;;;5011384;28;20228;-69
2022/04/16 09:26:51;;;;;;;1.87;1.70;;;12.40;96.40;;;;;;5010425;28;20629;-70
2022/04/16 09:29:18;;;;;;;3.27;1.90;;;12.40;96.60;;;;;;5011084;28;20224;-70
2022/04/16 09:31:49;;;;;;;3.77;3.47;;;12.40;96.50;;;;;;5010422;28;20224;-69
2022/04/16 09:34:23;;;;;;;2.50;2.10;;;12.40;96.40;;;;;;5009047;28;20464;-70
2022/04/16 09:36:50;;;;;;;2.53;1.80;;;12.40;96.40;;;;;;5009124;28;20485;-69
2022/04/16 09:39:16;;;;;;;1.70;1.60;;;12.50;96.40;;;;;;5007421;28;20498;-70
2022/04/16 09:41:46;;;;;;;2.23;2.10;;;12.50;96.50;;;;;;5012951;28;20460;-70
2022/04/16 09:44:20;;;;;;;3.10;2.10;;;12.60;96.50;;;;;;5003022;28;20463;-70
2022/04/16 09:46:46;;;;;;;2.97;2.07;;;12.60;96.60;;;;;;5010514;28;20456;-70
2022/04/16 09:49:14;;;;;;;2.33;1.90;;;12.70;96.50;;;;;;5014318;28;20498;-70
2022/04/16 09:51:43;;;;;;;2.57;2.37;;;12.80;96.40;;;;;;5019349;28;20472;-70
2022/04/16 09:54:09;;;;;;;3.30;2.33;;;12.90;96.30;;;;;;4988313;28;21058;-67
2022/04/16 09:56:37;;;;;;;3.40;2.30;;;13.00;96.30;;;;;;5014199;28;20551;-71
2022/04/16 09:59:09;;;;;;;4.03;2.10;;;13.10;96.30;;;;;;4999591;28;20443;-71
2022/04/16 10:01:39;;;;;;;3.45;2.15;;;13.10;96.00;;;;;;5019539;28;20448;-69
2022/04/16 10:04:08;;;;;;;5.60;2.70;;;13.20;96.00;;;;;;5013942;28;20510;-69
2022/04/16 10:06:34;;;;;;;4.00;2.60;;;13.20;95.60;;;;;;5008855;28;20476;-70
2022/04/16 10:09:13;;;;;;;2.67;2.47;;;13.30;96.00;;;;;;4988985;28;20491;-71
2022/04/16 10:14:34;;;;;;;4.50;2.60;;;13.40;95.60;;;;;;5027624;28;20456;-70
2022/04/16 10:17:28;;;;;;;2.87;2.23;;;13.50;95.70;;;;;;5021122;28;20522;-70
2022/04/16 10:20:04;;;;;;;2.40;2.20;;;13.70;95.20;;;;;;5003871;28;20437;-70
2022/04/16 10:22:30;;;;;;;2.40;2.23;;;13.70;95.10;;;;;;5006420;28;20559;-69
2022/04/16 10:24:58;;;;;;;3.03;2.73;;;13.70;95.30;;;;;;5009283;28;20582;-70
2022/04/16 10:27:27;;;;;;;5.23;2.60;;;13.70;95.00;;;;;;5017708;28;20225;-72
2022/04/16 10:29:54;;;;;;;2.80;2.40;;;13.80;94.80;;;;;;5014905;28;20538;-70
2022/04/16 10:32:19;;;;;;;3.60;2.67;;;13.80;94.20;;;;;;5008449;28;20575;-70
2022/04/16 10:34:46;;;;;;;3.87;2.77;;;13.80;94.40;;;;;;5016445;28;20546;-70
2022/04/16 10:37:23;;;;;;;2.23;2.07;;;13.90;94.30;;;;;;4992512;28;20225;-70
2022/04/16 10:39:52;;;;;;;2.30;2.10;;;14.00;94.40;;;;;;5011516;28;20922;-69
2022/04/16 10:42:32;;;;;;;2.70;2.30;;;14.00;94.40;;;;;;5009067;28;20480;-71
2022/04/16 10:45:09;;;;;;;5.60;2.97;;;14.00;94.00;;;;;;5026006;28;20947;-70
2022/04/16 10:47:41;;;;;;;2.50;2.30;;;14.10;94.30;;;;;;5011863;28;20463;-69
2022/04/16 10:50:15;;;;;;;3.40;2.57;;;14.20;94.10;;;;;;5018277;28;20460;-70
2022/04/16 10:53:02;;;;;;;3.10;2.07;;;14.40;93.60;;;;;;5023162;28;20513;-70
2022/04/16 10:55:32;;;;;;;3.57;2.37;;;14.30;93.70;;;;;;5019305;28;20487;-69
2022/04/16 10:58:03;;;;;;;2.90;2.60;;;14.40;93.80;;;;;;5013562;28;21003;-68
2022/04/16 11:00:37;;;;;;;2.70;2.50;;;14.30;93.50;;;;;;5018740;28;20467;-69
2022/04/16 11:03:14;;;;;;;3.70;2.70;;;14.40;93.60;;;;;;5029458;28;20524;-70
2022/04/16 11:05:43;;;;;;;2.47;2.27;;;14.30;93.20;;;;;;5014413;28;20448;-70
2022/04/16 11:08:14;;;;;;;4.00;2.43;;;14.20;93.00;;;;;;4996499;28;20484;-74
2022/04/16 11:10:41;;;;;;;2.90;1.80;;;14.40;93.50;;;;;;5017795;28;20514;-69
2022/04/16 11:13:09;;;;;;;2.67;2.07;;;14.70;93.70;;;;;;5016127;28;20456;-70
2022/04/16 11:15:35;;;;;;;2.93;2.60;;;14.90;93.20;;;;;;4992931;28;20448;-69
2022/04/16 11:18:02;;;;;;;2.43;2.23;;;15.10;93.10;;;;;;5010850;28;20471;-69
2022/04/16 11:20:28;;;;;;;2.83;2.63;;;14.90;92.40;;;;;;4997320;28;20243;-70
2022/04/16 11:22:57;;;;;;;2.73;2.33;;;14.70;92.20;;;;;;5008551;28;20476;-70
2022/04/16 11:25:23;;;;;;;3.10;2.80;;;14.70;92.50;;;;;;5008460;28;20471;-70
2022/04/16 11:36:09;;;;;;;2.93;2.50;;;15.00;92.00;;;;;;5008862;28;20853;-71
2022/04/16 11:38:40;;;;;;;3.00;2.30;;;14.90;91.70;;;;;;5007034;28;20480;-71
2022/04/16 11:41:08;;;;;;;2.40;2.20;;;14.90;91.90;;;;;;5007971;28;20999;-67
2022/04/16 11:43:38;;;;;;;2.60;2.40;;;14.90;91.60;;;;;;5006261;28;20480;-70
2022/04/16 11:46:11;;;;;;;2.20;2.10;;;15.10;92.00;;;;;;5023672;28;20460;-69
2022/04/16 11:48:41;;;;;;;3.33;2.40;;;15.20;92.00;;;;;;5007858;28;20456;-69
2022/04/16 11:51:10;;;;;;;3.03;2.77;;;15.10;91.70;;;;;;5012145;28;20482;-69
2022/04/16 11:53:52;;;;;;;2.60;2.40;;;15.00;91.60;;;;;;5009258;28;20470;-70
2022/04/16 11:56:27;;;;;;;2.87;2.50;;;15.10;91.40;;;;;;5010285;28;20472;-74
2022/04/16 11:58:53;;;;;;;4.30;2.83;;;15.00;91.40;;;;;;5008621;28;20443;-68
2022/04/16 12:01:20;;;;;;;4.80;2.57;;;15.00;91.60;;;;;;5018860;28;20468;-68
2022/04/16 12:03:46;;;;;;;2.43;2.13;;;15.00;91.50;;;;;;5011405;28;20822;-68
2022/04/16 12:06:13;;;;;;;2.93;2.67;;;15.00;91.70;;;;;;5009065;28;20456;-71
2022/04/16 12:08:48;;;;;;;3.00;2.70;;;15.00;91.60;;;;;;5008882;28;20255;-68
2022/04/16 12:11:17;;;;;;;7.37;2.37;;;15.00;91.80;;;;;;4989254;28;20459;-68
2022/04/16 12:13:43;;;;;;;3.10;2.80;;;15.10;91.90;;;;;;5012469;28;20955;-68
2022/04/16 12:16:13;;;;;;;3.10;2.80;;;15.10;91.70;;;;;;5013018;28;20444;-68
2022/04/16 12:18:41;;;;;;;2.53;2.30;;;15.10;91.50;;;;;;5017842;28;20282;-68
2022/04/16 12:21:09;;;;;;;2.30;2.10;;;15.20;91.70;;;;;;5008515;28;20506;-69
2022/04/16 12:23:38;;;;;;;3.03;2.70;;;15.30;91.80;;;;;;5007295;28;20476;-68
2022/04/16 12:26:09;;;;;;;2.80;2.60;;;15.20;91.10;;;;;;5008381;28;20459;-67
2022/04/16 12:28:39;;;;;;;3.30;2.27;;;15.20;90.90;;;;;;5003765;28;20468;-70
2022/04/16 12:31:05;;;;;;;3.60;2.67;;;15.20;91.10;;;;;;4989563;28;20491;-69
2022/04/16 12:33:31;;;;;;;3.60;2.50;;;15.20;90.70;;;;;;5009906;28;20938;-70
2022/04/16 12:35:58;;;;;;;2.80;2.23;;;15.10;90.60;;;;;;5007042;28;20578;-68
2022/04/16 12:38:25;;;;;;;2.60;2.40;;;15.00;90.40;;;;;;5009015;28;20220;-71
2022/04/16 12:41:08;;;;;;;2.00;1.90;;;15.10;90.50;;;;;;5007410;28;20460;-70
2022/04/16 12:43:34;;;;;;;2.60;2.37;;;15.00;90.50;;;;;;4990065;28;20574;-72
2022/04/16 12:46:00;;;;;;;3.20;2.70;;;15.10;90.10;;;;;;5007641;28;20448;-68
2022/04/16 12:48:25;;;;;;;2.63;2.40;;;15.20;90.10;;;;;;5017937;28;20243;-68
2022/04/16 12:50:51;;;;;;;4.20;2.37;;;15.20;90.10;;;;;;5019021;28;20274;-68
2022/04/16 12:53:17;;;;;;;3.30;2.50;;;15.10;89.20;;;;;;5012710;28;20587;-70
2022/04/16 12:55:42;;;;;;;2.50;2.20;;;15.20;90.00;;;;;;5013734;28;20224;-68
2022/04/16 12:58:08;;;;;;;3.00;2.50;;;15.30;90.20;;;;;;5013246;28;20229;-68
2022/04/16 13:00:34;;;;;;;2.53;2.20;;;15.40;89.70;;;;;;5011897;28;20209;-69
2022/04/16 13:03:00;;;;;;;2.53;2.10;;;15.40;90.00;;;;;;5012020;28;20236;-68
2022/04/16 13:05:29;;;;;;;2.33;2.13;;;15.50;88.40;;;;;;5011680;28;20839;-70
2022/04/16 13:07:57;;;;;;;3.70;2.30;;;15.40;88.80;;;;;;5023575;28;20317;-68
2022/04/16 13:10:22;;;;;;;1.77;1.63;;;15.40;88.20;;;;;;5019346;28;20452;-68
2022/04/16 13:12:49;;;;;;;3.27;1.97;;;15.40;88.30;;;;;;4992519;28;20536;-69
2022/04/16 13:15:15;;;;;;;4.30;2.10;;;15.30;87.10;;;;;;5003537;28;20581;-69
2022/04/16 13:17:41;;;;;;;5.60;2.10;;;15.20;87.60;;;;;;5019479;28;20225;-69